createdAt,value
2023-04-16T00:00:29.632Z,4.72
2023-04-16T00:03:35.981Z,4.64
2023-04-16T00:06:46.110Z,4.74
2023-04-16T00:09:53.032Z,4.73
2023-04-16T00:12:59.865Z,4.73
2023-04-16T00:16:05.957Z,4.59
2023-04-16T00:19:12.716Z,4.37
2023-04-16T00:22:21.304Z,4.21
2023-04-16T00:25:28.111Z,4.14
2023-04-16T00:28:34.045Z,4.31
2023-04-16T00:31:41.271Z,4.37
2023-04-16T00:34:47.252Z,4.39
2023-04-16T00:37:56.629Z,4.40
2023-04-16T00:41:02.784Z,4.36
2023-04-16T00:44:09.647Z,4.41
2023-04-16T00:47:16.362Z,4.40
2023-04-16T00:50:23.480Z,4.33
2023-04-16T00:53:33.598Z,4.36
2023-04-16T00:56:41.828Z,4.33
2023-04-16T00:59:47.736Z,4.26
2023-04-16T01:02:55.499Z,3.81
2023-04-16T01:06:01.647Z,3.75
2023-04-16T01:09:11.528Z,3.83
2023-04-16T01:12:17.500Z,3.76
2023-04-16T01:15:24.338Z,3.61
2023-04-16T01:18:30.852Z,3.51
2023-04-16T01:21:40.175Z,3.45
2023-04-16T01:24:46.078Z,3.54
2023-04-16T01:27:55.194Z,3.52
2023-04-16T01:31:01.727Z,3.47
2023-04-16T01:34:18.791Z,3.53
2023-04-16T01:37:27.492Z,3.50
2023-04-16T01:40:34.425Z,3.62
2023-04-16T01:43:40.579Z,3.66
2023-04-16T01:46:48.028Z,3.72
2023-04-16T01:49:54.221Z,3.74
2023-04-16T01:53:05.370Z,3.83
2023-04-16T01:56:12.153Z,3.91
2023-04-16T01:59:18.086Z,3.95
2023-04-16T02:02:28.459Z,3.99
2023-04-16T02:05:34.454Z,4.11
2023-04-16T02:08:44.009Z,4.09
2023-04-16T02:11:49.949Z,4.11
2023-04-16T02:14:57.176Z,4.10
2023-04-16T02:18:06.646Z,4.07
2023-04-16T02:21:14.482Z,4.04
2023-04-16T02:24:24.871Z,4.00
2023-04-16T02:27:32.241Z,4.04
2023-04-16T02:30:50.578Z,4.07
2023-04-16T02:33:59.332Z,4.10
2023-04-16T02:37:05.311Z,4.08
2023-04-16T02:40:15.591Z,3.88
2023-04-16T02:43:21.864Z,3.83
2023-04-16T02:46:29.331Z,3.75
2023-04-16T02:49:36.110Z,3.69
2023-04-16T02:52:42.949Z,3.63
2023-04-16T02:55:57.906Z,3.76
2023-04-16T02:59:04.695Z,3.82
2023-04-16T03:02:11.298Z,3.91
2023-04-16T03:05:18.455Z,3.90
2023-04-16T03:08:29.657Z,3.85
2023-04-16T03:11:39.037Z,3.86
2023-04-16T03:14:45.045Z,3.88
2023-04-16T03:17:52.406Z,3.34
2023-04-16T03:20:58.282Z,2.60
2023-04-16T03:24:05.193Z,2.41
2023-04-16T03:27:14.397Z,2.34
2023-04-16T03:30:21.363Z,2.01
2023-04-16T03:33:29.337Z,1.97
2023-04-16T03:36:36.304Z,2.06
2023-04-16T03:39:42.575Z,2.01
2023-04-16T03:42:59.584Z,1.89
2023-04-16T03:46:09.389Z,1.87
2023-04-16T03:49:16.441Z,1.93
2023-04-16T03:52:22.923Z,2.01
2023-04-16T03:55:41.701Z,2.20
2023-04-16T03:58:52.683Z,2.29
2023-04-16T04:02:01.897Z,2.39
2023-04-16T04:05:08.913Z,2.38
2023-04-16T04:08:17.324Z,2.58
2023-04-16T04:11:23.718Z,2.74
2023-04-16T04:14:40.130Z,2.88
2023-04-16T04:17:46.670Z,3.01
2023-04-16T04:20:53.537Z,3.14
2023-04-16T04:24:03.698Z,3.30
2023-04-16T04:27:13.545Z,3.43
2023-04-16T04:30:22.444Z,3.51
2023-04-16T04:33:29.986Z,3.66
2023-04-16T04:36:36.000Z,3.59
2023-04-16T04:39:42.740Z,3.47
2023-04-16T04:42:48.882Z,3.58
2023-04-16T04:45:58.410Z,3.80
2023-04-16T04:49:14.118Z,4.04
2023-04-16T04:52:26.523Z,4.20
2023-04-16T04:55:32.432Z,4.53
2023-04-16T04:58:39.201Z,4.54
2023-04-16T05:01:47.857Z,4.45
2023-04-16T05:04:54.511Z,4.48
2023-04-16T05:08:00.528Z,4.57
2023-04-16T05:11:07.766Z,4.52
2023-04-16T05:14:13.695Z,4.64
2023-04-16T05:17:23.104Z,4.73
2023-04-16T05:20:28.972Z,4.88
2023-04-16T05:23:35.743Z,5.03
2023-04-16T05:26:41.765Z,5.64
2023-04-16T05:29:51.622Z,6.63
2023-04-16T05:33:00.266Z,7.32
2023-04-16T05:36:07.937Z,8.04
2023-04-16T05:39:14.251Z,8.96
2023-04-16T05:42:21.270Z,9.93
2023-04-16T05:45:28.124Z,10.73
2023-04-16T05:48:37.679Z,11.17
2023-04-16T05:51:43.754Z,11.62
2023-04-16T05:54:50.717Z,11.25
2023-04-16T05:57:56.648Z,11.37
2023-04-16T06:01:04.669Z,12.31
2023-04-16T06:04:13.474Z,12.14
2023-04-16T06:07:20.514Z,12.64
2023-04-16T06:10:26.842Z,12.53
2023-04-16T06:13:33.675Z,12.91
2023-04-16T06:16:39.575Z,14.12
2023-04-16T06:19:49.272Z,12.80
2023-04-16T06:22:55.233Z,12.45
2023-04-16T06:26:02.216Z,13.09
2023-04-16T06:29:11.070Z,11.86
2023-04-16T06:32:18.298Z,12.08
2023-04-16T06:35:28.229Z,12.90
2023-04-16T06:38:35.002Z,13.09
2023-04-16T06:41:41.229Z,11.98
2023-04-16T06:44:48.163Z,12.17
2023-04-16T06:47:54.233Z,11.81
2023-04-16T06:51:04.240Z,12.12
2023-04-16T06:54:12.445Z,12.64
2023-04-16T06:57:19.243Z,12.84
2023-04-16T07:00:25.525Z,13.69
2023-04-16T07:03:34.688Z,14.53
2023-04-16T07:06:43.833Z,15.33
2023-04-16T07:09:50.739Z,15.71
2023-04-16T07:13:04.533Z,14.33
2023-04-16T07:16:11.682Z,14.91
2023-04-16T07:19:17.755Z,14.73
2023-04-16T07:22:27.278Z,15.02
2023-04-16T07:25:35.470Z,14.93
2023-04-16T07:28:42.186Z,15.76
2023-04-16T07:31:49.432Z,16.62
2023-04-16T07:34:59.423Z,16.44
2023-04-16T07:38:10.970Z,16.09
2023-04-16T07:41:18.302Z,16.92
2023-04-16T07:44:24.322Z,16.68
2023-04-16T07:47:31.078Z,16.69
2023-04-16T07:50:37.164Z,16.20
2023-04-16T07:53:49.039Z,16.18
2023-04-16T07:56:55.694Z,16.79
2023-04-16T08:00:02.508Z,16.29
2023-04-16T08:03:19.112Z,15.99
2023-04-16T08:06:26.886Z,14.71
2023-04-16T08:09:36.169Z,14.18
2023-04-16T08:12:43.055Z,14.40
2023-04-16T08:15:50.680Z,14.81
2023-04-16T08:18:57.530Z,15.89
2023-04-16T08:22:05.021Z,15.86
2023-04-16T08:25:16.502Z,14.69
2023-04-16T08:28:22.501Z,15.10
2023-04-16T08:31:32.174Z,15.41
2023-04-16T08:34:38.445Z,15.42
2023-04-16T08:37:46.574Z,15.02
2023-04-16T08:41:06.009Z,15.41
2023-04-16T08:44:22.910Z,15.14
2023-04-16T08:47:39.833Z,15.76
2023-04-16T08:50:49.846Z,16.67
2023-04-16T08:54:07.468Z,16.93
2023-04-16T08:57:25.359Z,16.41
2023-04-16T09:00:34.839Z,15.90
2023-04-16T09:03:42.769Z,17.70
2023-04-16T09:06:51.618Z,17.79
2023-04-16T09:10:01.270Z,17.36
2023-04-16T09:13:30.847Z,17.50
2023-04-16T09:16:40.200Z,17.55
2023-04-16T09:19:54.983Z,16.68
2023-04-16T09:23:01.680Z,17.34
2023-04-16T09:26:09.461Z,16.80
2023-04-16T09:29:38.994Z,16.50
2023-04-16T09:32:45.419Z,15.64
2023-04-16T09:35:54.855Z,16.34
2023-04-16T09:39:01.189Z,16.68
2023-04-16T09:42:09.357Z,16.12
2023-04-16T09:45:22.292Z,15.70
2023-04-16T09:48:34.247Z,15.45
2023-04-16T09:51:46.310Z,16.31
2023-04-16T09:54:55.163Z,17.09
2023-04-16T09:58:05.785Z,18.02
2023-04-16T10:01:17.550Z,18.05
2023-04-16T10:04:27.280Z,16.75
2023-04-16T10:07:46.884Z,16.22
2023-04-16T10:10:53.182Z,15.95
2023-04-16T10:14:01.200Z,15.76
2023-04-16T10:17:15.448Z,17.06
2023-04-16T10:20:25.899Z,17.72
2023-04-16T10:23:32.703Z,18.01
2023-04-16T10:26:45.070Z,17.48
2023-04-16T10:29:53.459Z,18.26
2023-04-16T10:33:05.143Z,18.53
2023-04-16T10:36:14.050Z,17.59
2023-04-16T10:39:24.383Z,18.17
2023-04-16T10:42:30.808Z,18.64
2023-04-16T10:45:41.887Z,18.46
2023-04-16T10:48:51.120Z,18.88
2023-04-16T10:52:07.644Z,18.89
2023-04-16T10:55:21.157Z,19.23
2023-04-16T10:58:31.931Z,19.29
2023-04-16T11:01:44.371Z,17.69
2023-04-16T11:04:53.916Z,17.42
2023-04-16T11:08:16.718Z,17.17
2023-04-16T11:11:25.629Z,16.86
2023-04-16T11:14:32.413Z,17.16
2023-04-16T11:17:53.896Z,17.10
2023-04-16T11:21:03.499Z,16.49
2023-04-16T11:24:15.702Z,15.47
2023-04-16T11:27:21.658Z,14.94
2023-04-16T11:30:34.514Z,14.55
2023-04-16T11:33:41.796Z,14.49
2023-04-16T11:36:54.095Z,13.91
2023-04-16T11:40:00.477Z,13.95
2023-04-16T11:43:20.174Z,13.81
2023-04-16T11:46:27.772Z,13.81
2023-04-16T11:49:39.093Z,14.54
2023-04-16T11:52:47.834Z,15.03
2023-04-16T11:55:55.399Z,15.16
2023-04-16T11:59:21.031Z,14.74
2023-04-16T12:02:42.895Z,14.44
2023-04-16T12:05:49.080Z,14.26
2023-04-16T12:08:58.517Z,14.38
2023-04-16T12:12:04.490Z,14.32
2023-04-16T12:15:12.823Z,14.18
2023-04-16T12:18:19.732Z,14.41
2023-04-16T12:21:26.861Z,14.52
2023-04-16T12:24:37.205Z,14.67
2023-04-16T12:27:53.994Z,14.79
2023-04-16T12:31:00.325Z,14.98
2023-04-16T12:34:07.943Z,15.17
2023-04-16T12:37:15.210Z,15.20
2023-04-16T12:40:25.395Z,15.27
2023-04-16T12:43:31.368Z,15.10
2023-04-16T12:46:40.234Z,15.26
2023-04-16T12:49:46.228Z,15.48
2023-04-16T12:52:53.347Z,15.77
2023-04-16T12:56:02.065Z,16.08
2023-04-16T12:59:10.767Z,16.21
2023-04-16T13:02:17.166Z,16.62
2023-04-16T13:05:24.150Z,16.75
2023-04-16T13:08:30.323Z,16.47
2023-04-16T13:11:39.748Z,16.23
2023-04-16T13:14:45.680Z,15.46
2023-04-16T13:17:52.497Z,15.18
2023-04-16T13:20:58.966Z,15.06
2023-04-16T13:24:05.715Z,14.67
2023-04-16T13:27:16.387Z,14.93
2023-04-16T13:30:25.792Z,14.39
2023-04-16T13:33:32.101Z,14.35
2023-04-16T13:36:38.971Z,14.36
2023-04-16T13:39:45.592Z,13.96
2023-04-16T13:42:55.209Z,13.80
2023-04-16T13:46:01.685Z,13.61
2023-04-16T13:49:08.970Z,13.68
2023-04-16T13:52:15.222Z,13.59
2023-04-16T13:55:22.201Z,13.66
2023-04-16T13:58:30.849Z,13.44
2023-04-16T14:01:37.954Z,13.62
2023-04-16T14:04:44.000Z,13.84
2023-04-16T14:07:54.046Z,13.66
2023-04-16T14:11:01.642Z,13.79
2023-04-16T14:14:11.447Z,13.86
2023-04-16T14:17:17.415Z,13.93
2023-04-16T14:20:27.223Z,14.28
2023-04-16T14:23:33.468Z,14.41
2023-04-16T14:26:40.408Z,14.49
2023-04-16T14:29:49.541Z,14.53
2023-04-16T14:32:57.008Z,14.69
2023-04-16T14:36:03.588Z,14.71
2023-04-16T14:39:10.723Z,14.69
2023-04-16T14:42:16.770Z,14.75
2023-04-16T14:45:27.513Z,14.58
2023-04-16T14:48:33.744Z,14.45
2023-04-16T14:51:40.802Z,14.21
2023-04-16T14:54:48.143Z,14.45
2023-04-16T14:57:55.211Z,14.30
2023-04-16T15:01:04.377Z,14.27
2023-04-16T15:04:12.013Z,14.24
2023-04-16T15:07:21.558Z,14.11
2023-04-16T15:10:28.668Z,14.06
2023-04-16T15:13:36.673Z,14.12
2023-04-16T15:16:50.528Z,14.08
2023-04-16T15:19:56.831Z,14.05
2023-04-16T15:23:03.802Z,13.76
2023-04-16T15:26:10.015Z,13.61
2023-04-16T15:29:16.744Z,13.52
2023-04-16T15:32:25.639Z,13.34
2023-04-16T15:35:32.537Z,13.22
2023-04-16T15:38:39.626Z,13.32
2023-04-16T15:42:00.733Z,13.49
2023-04-16T15:45:08.987Z,13.45
2023-04-16T15:48:18.232Z,13.51
2023-04-16T15:51:24.353Z,13.41
2023-04-16T15:54:32.161Z,13.36
2023-04-16T15:57:38.263Z,13.23
2023-04-16T16:00:47.838Z,13.26
2023-04-16T16:03:56.821Z,13.21
2023-04-16T16:07:05.122Z,13.11
2023-04-16T16:10:13.523Z,13.08
2023-04-16T16:13:20.602Z,13.06
2023-04-16T16:16:26.600Z,13.02
2023-04-16T16:19:36.653Z,12.80
2023-04-16T16:22:45.535Z,12.77
2023-04-16T16:25:56.012Z,12.79
2023-04-16T16:29:02.308Z,12.88
2023-04-16T16:32:11.955Z,12.87
2023-04-16T16:35:26.522Z,12.83
2023-04-16T16:38:33.332Z,12.73
2023-04-16T16:41:42.350Z,12.69
2023-04-16T16:44:49.911Z,12.58
2023-04-16T16:47:56.949Z,12.52
2023-04-16T16:51:06.768Z,12.41
2023-04-16T16:54:12.766Z,12.50
2023-04-16T16:57:21.030Z,12.52
2023-04-16T17:00:27.913Z,12.46
2023-04-16T17:03:34.776Z,12.42
2023-04-16T17:06:43.588Z,12.44
2023-04-16T17:09:50.345Z,12.41
2023-04-16T17:12:56.336Z,12.28
2023-04-16T17:16:03.123Z,12.21
2023-04-16T17:19:09.437Z,12.19
2023-04-16T17:22:19.424Z,12.12
2023-04-16T17:25:25.408Z,12.10
2023-04-16T17:28:32.284Z,12.01
2023-04-16T17:31:45.242Z,11.96
2023-04-16T17:34:52.163Z,11.87
2023-04-16T17:38:06.736Z,11.83
2023-04-16T17:41:13.556Z,11.77
2023-04-16T17:44:19.470Z,11.69
2023-04-16T17:47:26.267Z,11.64
2023-04-16T17:50:32.312Z,11.57
2023-04-16T17:53:42.878Z,11.52
2023-04-16T17:56:49.195Z,11.49
2023-04-16T17:59:56.101Z,11.43
2023-04-16T18:03:05.245Z,11.33
2023-04-16T18:06:12.075Z,11.29
2023-04-16T18:09:27.084Z,11.22
2023-04-16T18:12:36.807Z,11.16
2023-04-16T18:15:42.962Z,11.07
2023-04-16T18:18:49.969Z,10.98
2023-04-16T18:21:56.066Z,10.89
2023-04-16T18:25:05.591Z,10.77
2023-04-16T18:28:14.056Z,10.74
2023-04-16T18:31:22.085Z,10.71
2023-04-16T18:34:31.605Z,10.69
2023-04-16T18:37:38.492Z,10.65
2023-04-16T18:40:47.303Z,10.59
2023-04-16T18:43:54.371Z,10.56
2023-04-16T18:47:00.351Z,10.52
2023-04-16T18:50:16.505Z,10.61
2023-04-16T18:53:22.732Z,10.57
2023-04-16T18:56:38.564Z,10.56
2023-04-16T18:59:44.564Z,10.46
2023-04-16T19:02:51.354Z,10.38
2023-04-16T19:05:57.636Z,10.37
2023-04-16T19:09:04.370Z,10.36
2023-04-16T19:12:13.201Z,10.37
2023-04-16T19:15:20.035Z,10.35
2023-04-16T19:18:26.336Z,10.30
2023-04-16T19:21:35.858Z,10.28
2023-04-16T19:24:41.886Z,10.21
2023-04-16T19:27:51.554Z,10.10
2023-04-16T19:30:58.788Z,10.05
2023-04-16T19:34:18.102Z,10.00
2023-04-16T19:37:24.023Z,9.93
2023-04-16T19:40:33.433Z,9.85
2023-04-16T19:43:42.164Z,9.80
2023-04-16T19:46:49.241Z,9.77
2023-04-16T19:49:55.824Z,9.70
2023-04-16T19:53:03.906Z,9.64
2023-04-16T19:56:10.082Z,9.49
2023-04-16T19:59:19.485Z,9.35
2023-04-16T20:02:25.722Z,9.31
2023-04-16T20:05:33.347Z,9.26
2023-04-16T20:08:39.330Z,9.22
2023-04-16T20:11:46.614Z,9.13
2023-04-16T20:14:55.604Z,9.03
2023-04-16T20:18:08.553Z,8.93
2023-04-16T20:21:14.557Z,8.90
2023-04-16T20:24:24.445Z,8.84
2023-04-16T20:27:30.408Z,8.79
2023-04-16T20:30:41.152Z,8.69
2023-04-16T20:33:47.317Z,8.56
2023-04-16T20:37:08.169Z,8.59
2023-04-16T20:40:15.347Z,8.50
2023-04-16T20:43:26.435Z,8.31
2023-04-16T20:46:39.633Z,7.97
2023-04-16T20:49:46.936Z,7.87
2023-04-16T20:52:53.480Z,7.82
2023-04-16T20:56:00.785Z,7.83
2023-04-16T20:59:15.656Z,7.86
2023-04-16T21:02:31.152Z,7.83
2023-04-16T21:05:37.226Z,7.81
2023-04-16T21:08:43.938Z,7.74
2023-04-16T21:11:49.941Z,7.69
2023-04-16T21:14:57.478Z,7.63
2023-04-16T21:18:06.194Z,7.48
2023-04-16T21:21:13.111Z,7.40
2023-04-16T21:24:19.190Z,7.35
2023-04-16T21:27:26.090Z,7.37
2023-04-16T21:30:32.741Z,7.36
2023-04-16T21:33:44.633Z,7.28
2023-04-16T21:36:50.621Z,7.25
2023-04-16T21:39:57.655Z,7.18
2023-04-16T21:43:03.679Z,7.11
2023-04-16T21:46:10.572Z,7.05
2023-04-16T21:49:19.374Z,6.98
2023-04-16T21:52:26.824Z,6.90
2023-04-16T21:55:32.766Z,6.86
2023-04-16T21:58:39.666Z,6.80
2023-04-16T22:01:45.601Z,6.77
2023-04-16T22:04:55.066Z,6.74
2023-04-16T22:08:04.028Z,6.75
2023-04-16T22:11:17.670Z,6.69
2023-04-16T22:14:23.581Z,6.63
2023-04-16T22:17:30.635Z,6.52
2023-04-16T22:20:49.002Z,6.49
2023-04-16T22:23:55.774Z,6.46
2023-04-16T22:27:01.689Z,6.41
2023-04-16T22:30:10.550Z,6.39
2023-04-16T22:33:16.637Z,6.33
2023-04-16T22:36:26.723Z,6.22
2023-04-16T22:39:32.609Z,6.17
2023-04-16T22:42:39.238Z,6.15
2023-04-16T22:45:46.592Z,6.16
2023-04-16T22:48:53.422Z,6.19
2023-04-16T22:52:05.170Z,6.18
2023-04-16T22:55:17.625Z,6.26
2023-04-16T22:58:23.688Z,6.35
2023-04-16T23:01:34.171Z,6.33
2023-04-16T23:04:40.106Z,6.41
2023-04-16T23:07:49.495Z,6.50
2023-04-16T23:10:55.655Z,6.46
2023-04-16T23:14:02.798Z,6.41
2023-04-16T23:17:08.654Z,6.32
2023-04-16T23:20:16.269Z,6.40
2023-04-16T23:23:32.086Z,6.40
2023-04-16T23:26:42.907Z,6.45
2023-04-16T23:29:48.936Z,6.45
2023-04-16T23:32:55.845Z,6.47
2023-04-16T23:36:01.959Z,6.47
2023-04-16T23:39:11.932Z,6.45
2023-04-16T23:42:22.834Z,6.45
2023-04-16T23:45:29.700Z,6.37
2023-04-16T23:48:35.718Z,6.37
2023-04-16T23:51:42.387Z,6.37
2023-04-16T23:54:55.753Z,6.34
2023-04-16T23:58:02.473Z,6.27
